Time;durP1;ratioP1;P1;durP2;ratioP2;P2;SDS_P1;SDS_P2;PMS_P1;PMS_P2;Temp;Humidity;BMP_temperature;BMP_pressure;BME280_temperature;BME280_humidity;BME280_pressure;Samples;Min_cycle;Max_cycle;Signal;HPM_P1;HPM_P2
2022/12/15 00:39:26;;;;;;;26.13;12.35;;;;;;;-2.25;43.58;100478.66;7392589;19;20510;-59
2022/12/15 00:41:51;;;;;;;26.55;12.52;;;;;;;-2.33;43.87;100483.72;7394264;19;20019;-59
2022/12/15 00:44:17;;;;;;;27.73;12.73;;;;;;;-2.28;43.62;100479.22;7394549;19;20503;-58
2022/12/15 00:46:55;;;;;;;27.02;13.15;;;;;;;-2.23;43.57;100475.72;7394833;19;20001;-59
2022/12/15 01:20:12;;;;;;;25.58;13.30;;;;;;;-2.11;43.70;100518.28;7394514;19;20519;-59
2022/12/15 01:22:38;;;;;;;26.17;12.10;;;;;;;-2.11;43.50;100511.06;7391385;19;20268;-59
2022/12/15 01:25:05;;;;;;;25.55;12.63;;;;;;;-2.13;43.76;100513.19;7394452;19;20070;-59
2022/12/15 01:27:30;;;;;;;25.45;13.07;;;;;;;-2.14;43.65;100508.13;7394088;19;20015;-59
2022/12/15 01:29:56;;;;;;;26.55;12.00;;;;;;;-2.15;43.81;100511.84;7393617;19;19991;-58
2022/12/15 01:32:22;;;;;;;27.85;12.63;;;;;;;-2.11;43.80;100505.72;7393272;19;20478;-58
2022/12/15 01:34:48;;;;;;;23.00;11.77;;;;;;;-2.12;43.81;100514.00;7393944;19;20026;-59
2022/12/15 01:37:13;;;;;;;23.42;12.60;;;;;;;-2.10;43.75;100518.00;7393745;19;20034;-58
2022/12/15 01:42:23;;;;;;;;;;;;;;;-2.17;43.93;100538.06;7392244;19;20022;-59
2022/12/15 01:44:51;;;;;;;24.33;11.82;;;;;;;-2.14;43.96;100534.88;7392946;19;19911;-59
2022/12/15 01:47:22;;;;;;;27.73;12.50;;;;;;;-2.07;43.89;100530.06;7392740;19;20018;-60
2022/12/15 01:49:49;;;;;;;26.17;12.63;;;;;;;-2.15;43.96;100538.59;7393563;19;20006;-59
2022/12/15 01:52:15;;;;;;;25.65;12.63;;;;;;;-2.11;44.12;100537.00;7393256;19;20074;-59
2022/12/15 01:54:50;;;;;;;27.83;13.65;;;;;;;-2.13;44.17;100533.78;7392116;19;20014;-59
2022/12/15 01:57:25;;;;;;;26.83;12.90;;;;;;;-2.13;44.51;100531.91;7392780;19;20366;-58
2022/12/15 01:59:54;;;;;;;24.70;12.32;;;;;;;-2.08;44.28;100531.97;7390738;19;20035;-59
2022/12/15 02:02:23;;;;;;;24.50;12.38;;;;;;;-2.08;44.23;100536.47;7391106;19;20044;-58
2022/12/15 02:04:50;;;;;;;26.20;12.68;;;;;;;-2.14;44.45;100534.88;7392701;19;20028;-59
2022/12/15 02:07:17;;;;;;;26.42;12.50;;;;;;;-2.10;44.43;100543.97;7390559;19;20486;-58
2022/12/15 02:09:46;;;;;;;25.77;12.55;;;;;;;-2.04;44.24;100543.72;7392085;19;20023;-58
2022/12/15 02:12:50;;;;;;;26.50;12.48;;;;;;;-2.03;44.56;100547.19;7393045;19;20023;-59
2022/12/15 02:15:31;;;;;;;24.55;12.48;;;;;;;-2.10;44.56;100539.41;7389680;19;20078;-59
2022/12/15 02:18:21;;;;;;;25.85;12.30;;;;;;;-2.11;44.50;100542.34;7392177;19;20438;-59
2022/12/15 02:21:05;;;;;;;25.77;12.55;;;;;;;-2.01;44.64;100538.91;7391609;19;20074;-59
2022/12/15 02:23:55;;;;;;;23.02;11.27;;;;;;;-2.04;44.47;100542.94;7391687;19;20006;-59
2022/12/15 02:26:24;;;;;;;24.23;11.90;;;;;;;-2.03;44.62;100540.00;7392568;19;20070;-59
2022/12/15 02:29:17;;;;;;;25.73;12.50;;;;;;;-2.16;44.98;100542.34;7388173;19;20491;-58
2022/12/15 02:31:50;;;;;;;27.17;12.90;;;;;;;-2.09;44.65;100540.25;7392177;19;20013;-58
2022/12/15 02:34:40;;;;;;;27.35;12.82;;;;;;;-2.09;44.93;100541.03;7389966;19;20019;-58
2022/12/15 02:37:21;;;;;;;25.17;11.98;;;;;;;-2.10;44.81;100543.97;7391452;19;19995;-59
2022/12/15 02:39:47;;;;;;;26.17;12.43;;;;;;;-2.08;45.00;100547.19;7391929;19;20031;-59
2022/12/15 02:42:13;;;;;;;26.83;12.23;;;;;;;-1.96;44.87;100537.06;7390512;19;20459;-60
2022/12/15 02:44:55;;;;;;;28.05;12.77;;;;;;;-1.93;44.74;100543.75;7391468;19;20023;-59
2022/12/15 02:47:51;;;;;;;28.10;12.63;;;;;;;-1.98;44.77;100541.84;7391343;19;20007;-60
2022/12/15 02:50:23;;;;;;;23.88;11.98;;;;;;;-2.06;45.03;100563.75;7390184;19;20030;-57
2022/12/15 02:53:18;;;;;;;23.65;11.95;;;;;;;-2.10;45.20;100554.66;7391040;19;20018;-60
2022/12/15 02:55:54;;;;;;;;;;;;;;;-2.20;45.39;100557.31;7390484;19;20328;-60
2022/12/15 02:58:32;;;;;;;25.50;11.75;;;;;;;-2.05;44.92;100555.47;7390415;19;19922;-60
2022/12/15 03:01:02;;;;;;;25.95;12.52;;;;;;;-2.05;45.00;100562.72;7390127;19;20010;-59
2022/12/15 03:03:31;;;;;;;28.25;12.85;;;;;;;-2.05;44.94;100554.69;7388671;19;20010;-59
2022/12/15 03:05:56;;;;;;;27.88;13.45;;;;;;;-1.98;45.12;100563.25;7390850;19;20026;-59
2022/12/15 03:08:23;;;;;;;28.27;13.10;;;;;;;-2.03;44.98;100556.03;7390411;19;20093;-59
2022/12/15 03:10:50;;;;;;;28.08;13.18;;;;;;;-2.01;44.98;100534.38;7388738;19;19994;-59
2022/12/15 03:13:16;;;;;;;25.98;12.65;;;;;;;-2.10;45.23;100550.13;7390460;19;19998;-59
2022/12/15 03:15:41;;;;;;;24.30;12.57;;;;;;;-2.06;45.28;100555.72;7390961;19;20456;-59
2022/12/15 03:18:07;;;;;;;26.15;12.38;;;;;;;-2.13;45.18;100544.50;7390008;19;20378;-58
2022/12/15 03:20:33;;;;;;;27.63;12.73;;;;;;;-2.09;45.27;100545.59;7390129;19;20094;-59
2022/12/15 03:23:00;;;;;;;26.70;12.68;;;;;;;-2.04;45.38;100553.63;7388501;19;20003;-59
2022/12/15 03:25:27;;;;;;;23.00;12.05;;;;;;;-2.04;45.32;100553.63;7389924;19;20070;-59
2022/12/15 03:27:52;;;;;;;25.85;13.30;;;;;;;-2.03;45.38;100553.38;7389803;19;19994;-58
2022/12/15 03:30:18;;;;;;;27.13;12.70;;;;;;;-1.96;45.42;100557.66;7390687;19;20503;-60
2022/12/15 03:32:44;;;;;;;26.73;12.98;;;;;;;-1.98;45.41;100557.91;7389784;19;19997;-60
2022/12/15 03:35:11;;;;;;;25.00;12.30;;;;;;;-2.00;45.44;100567.28;7389459;19;20351;-59
2022/12/15 03:37:38;;;;;;;24.48;12.15;;;;;;;-1.98;45.51;100571.28;7389517;19;20005;-60
2022/12/15 03:40:04;;;;;;;27.02;12.93;;;;;;;-1.88;45.42;100568.66;7390271;19;19994;-59
2022/12/15 03:42:47;;;;;;;24.05;12.75;;;;;;;-1.98;45.54;100573.97;7387329;19;20003;-60
2022/12/15 03:45:17;;;;;;;27.23;12.43;;;;;;;-1.97;45.79;100570.22;7389712;19;20423;-58
2022/12/15 03:47:44;;;;;;;22.67;11.60;;;;;;;-1.88;45.48;100563.31;7393454;19;20486;-59
2022/12/15 03:50:11;;;;;;;26.55;11.68;;;;;;;-1.91;45.61;100561.16;7397142;19;20085;-59
2022/12/15 03:52:37;;;;;;;22.60;11.75;;;;;;;-1.90;45.73;100576.13;7396390;19;20467;-59
2022/12/15 03:55:04;;;;;;;22.33;11.45;;;;;;;-1.84;45.63;100571.63;7397337;19;19998;-59
2022/12/15 03:57:30;;;;;;;27.17;12.40;;;;;;;-1.82;45.76;100571.34;7396276;19;20313;-60
2022/12/15 03:59:56;;;;;;;27.08;12.55;;;;;;;-1.85;45.67;100570.00;7394301;19;20011;-60
2022/12/15 04:02:21;;;;;;;26.67;12.63;;;;;;;-2.01;46.07;100569.16;7393416;19;20025;-60
2022/12/15 04:04:47;;;;;;;23.58;11.93;;;;;;;-2.01;46.16;100574.50;7396218;19;20522;-59
2022/12/15 04:07:14;;;;;;;24.27;12.10;;;;;;;-2.02;46.21;100572.88;7394482;19;20002;-60
2022/12/15 04:09:40;;;;;;;23.25;11.38;;;;;;;-1.93;46.10;100568.63;7396643;19;20011;-60
2022/12/15 04:12:06;;;;;;;23.83;12.38;;;;;;;-1.93;46.25;100565.16;7395857;19;20011;-59
2022/12/15 04:14:32;;;;;;;25.52;12.25;;;;;;;-1.91;46.22;100571.88;7396001;19;20006;-59
2022/12/15 04:16:58;;;;;;;25.17;12.13;;;;;;;-1.84;46.03;100585.00;7395809;19;20342;-59
2022/12/15 04:22:15;;;;;;;25.00;11.45;;;;;;;-1.84;46.12;100590.34;7391576;19;20086;-59
2022/12/15 05:33:12;;;;;;;21.80;10.88;;;;;;;-1.88;46.08;100629.38;7393119;19;19994;-60
2022/12/15 05:35:38;;;;;;;22.88;11.48;;;;;;;-2.04;46.43;100631.19;7390551;19;19990;-59
2022/12/15 05:38:04;;;;;;;22.75;11.07;;;;;;;-1.98;46.36;100632.00;7392879;19;20010;-59
2022/12/15 05:40:30;;;;;;;25.75;12.43;;;;;;;-2.04;46.42;100633.88;7392522;19;20502;-60
2022/12/15 05:42:59;;;;;;;22.98;11.48;;;;;;;-1.89;46.15;100631.25;7387812;19;19999;-60
2022/12/15 05:45:26;;;;;;;24.45;11.65;;;;;;;-1.93;46.32;100632.03;7392731;19;19994;-60
2022/12/15 05:47:53;;;;;;;22.77;12.18;;;;;;;-1.94;46.31;100635.78;7391780;19;20010;-61
2022/12/15 05:50:20;;;;;;;21.02;11.70;;;;;;;-1.87;46.16;100634.47;7392950;19;20305;-60
2022/12/15 05:52:46;;;;;;;22.40;11.48;;;;;;;-1.97;46.44;100639.78;7390137;19;20035;-59
2022/12/15 05:55:12;;;;;;;25.02;11.55;;;;;;;-1.92;46.40;100631.78;7392374;19;20384;-59
2022/12/15 05:57:38;;;;;;;22.77;12.10;;;;;;;-1.94;46.47;100631.25;7392022;19;20018;-59
2022/12/15 06:00:04;;;;;;;25.45;12.07;;;;;;;-1.98;46.82;100624.78;7390239;19;20007;-59
2022/12/15 06:02:30;;;;;;;23.45;11.27;;;;;;;-1.93;46.57;100627.47;7391188;19;20003;-58
2022/12/15 06:04:56;;;;;;;28.73;12.38;;;;;;;-1.90;46.52;100620.81;7390766;19;20058;-59
2022/12/15 06:07:22;;;;;;;25.08;12.40;;;;;;;-1.93;46.64;100624.81;7391528;19;20019;-59
2022/12/15 06:09:48;;;;;;;21.08;11.38;;;;;;;-1.88;46.59;100630.19;7390577;19;19994;-58
2022/12/15 06:12:13;;;;;;;22.33;11.27;;;;;;;-1.89;46.62;100627.78;7391707;19;20006;-59
2022/12/15 06:14:39;;;;;;;21.95;12.32;;;;;;;-1.76;46.39;100632.66;7391872;19;20014;-58
2022/12/15 06:17:05;;;;;;;24.85;11.63;;;;;;;-1.73;46.40;100642.00;7391405;19;20003;-58
2022/12/15 06:19:30;;;;;;;25.33;11.30;;;;;;;-1.78;46.50;100647.34;7392088;19;19999;-59
2022/12/15 06:21:56;;;;;;;24.05;12.60;;;;;;;-1.75;46.16;100649.50;7390509;19;19999;-58
2022/12/15 06:24:23;;;;;;;25.70;11.77;;;;;;;-1.84;46.60;100667.94;7389466;19;20017;-59
2022/12/15 06:26:49;;;;;;;22.75;12.15;;;;;;;-1.91;46.88;100672.69;7391747;19;20005;-59
2022/12/15 06:29:14;;;;;;;24.10;11.73;;;;;;;-1.88;46.74;100666.84;7390122;19;20066;-59
2022/12/15 06:31:41;;;;;;;25.70;11.70;;;;;;;-1.96;47.00;100660.13;7391930;19;20010;-59
2022/12/15 06:34:11;;;;;;;26.50;11.75;;;;;;;-1.87;46.59;100669.25;7389970;19;20470;-58
2022/12/15 06:36:37;;;;;;;23.75;11.65;;;;;;;-2.06;47.15;100676.09;7391513;19;20065;-59
2022/12/15 06:39:07;;;;;;;24.00;11.25;;;;;;;-1.99;46.97;100674.03;7389446;19;20108;-59
2022/12/15 06:41:33;;;;;;;23.80;11.68;;;;;;;-1.90;46.79;100683.16;7390679;19;20335;-59
2022/12/15 06:44:00;;;;;;;24.40;11.73;;;;;;;-1.89;46.82;100678.63;7390220;19;20003;-59
2022/12/15 06:46:27;;;;;;;25.95;11.82;;;;;;;-1.95;46.89;100685.78;7391168;19;20003;-59
2022/12/15 06:48:53;;;;;;;25.50;11.65;;;;;;;-1.98;46.87;100683.63;7388955;19;20010;-59
2022/12/15 06:51:19;;;;;;;24.13;11.98;;;;;;;-2.10;47.25;100677.69;7390959;19;20003;-60
2022/12/15 06:53:48;;;;;;;26.33;12.00;;;;;;;-1.99;47.06;100695.41;7389728;19;20002;-59
2022/12/15 06:56:23;;;;;;;24.23;11.75;;;;;;;-1.94;46.86;100687.41;7391546;19;20023;-59
2022/12/15 06:58:51;;;;;;;23.50;11.80;;;;;;;-1.91;46.89;100692.25;7388412;19;20006;-59
2022/12/15 07:01:19;;;;;;;22.50;11.73;;;;;;;-1.86;46.61;100688.78;7390548;19;20007;-59
2022/12/15 07:03:45;;;;;;;25.98;12.13;;;;;;;-1.80;46.46;100692.31;7388254;19;20008;-59
2022/12/15 07:06:13;;;;;;;22.02;11.95;;;;;;;-1.95;46.87;100693.03;7389961;19;19998;-60
2022/12/15 07:08:39;;;;;;;25.50;12.02;;;;;;;-1.93;46.90;100689.00;7387658;19;20002;-59
2022/12/15 07:11:07;;;;;;;23.95;11.63;;;;;;;-1.88;47.04;100694.41;7390149;19;20488;-59
2022/12/15 07:13:32;;;;;;;23.15;11.48;;;;;;;-1.83;46.66;100704.31;7389124;19;19999;-61
2022/12/15 07:16:03;;;;;;;26.38;12.23;;;;;;;-1.93;47.10;100706.94;7390351;19;19998;-60
2022/12/15 07:18:36;;;;;;;23.85;11.48;;;;;;;-1.98;47.00;100713.06;7388900;19;20007;-59
2022/12/15 07:21:07;;;;;;;20.13;11.20;;;;;;;-1.94;47.13;100721.41;7391193;19;20378;-59
2022/12/15 07:23:34;;;;;;;23.52;11.88;;;;;;;-1.85;46.92;100725.97;7397001;19;19999;-59
2022/12/15 07:26:07;;;;;;;25.77;11.38;;;;;;;-1.87;46.97;100730.00;7397866;19;20388;-59
2022/12/15 07:28:34;;;;;;;23.05;11.55;;;;;;;-1.82;47.04;100729.22;7395830;19;20419;-59
2022/12/15 07:31:06;;;;;;;22.63;11.68;;;;;;;-1.70;46.75;100729.81;7398041;19;19998;-59
2022/12/15 07:33:32;;;;;;;23.48;12.00;;;;;;;-1.78;46.86;100725.75;7397744;19;20032;-60
2022/12/15 07:35:59;;;;;;;23.35;10.98;;;;;;;-1.80;46.91;100737.78;7395166;19;20026;-58
2022/12/15 07:38:26;;;;;;;21.67;10.82;;;;;;;-1.85;47.14;100739.34;7393839;19;20006;-59
2022/12/15 07:40:52;;;;;;;25.80;11.85;;;;;;;-1.74;46.73;100734.09;7394791;19;20479;-59
2022/12/15 07:43:18;;;;;;;23.50;11.57;;;;;;;-1.64;46.68;100734.13;7396059;19;20648;-59
2022/12/15 07:45:43;;;;;;;25.27;11.70;;;;;;;-1.69;46.69;100734.91;7394871;19;19999;-60
2022/12/15 07:48:09;;;;;;;21.00;10.80;;;;;;;-1.68;46.83;100733.84;7395221;19;20075;-58
2022/12/15 07:50:38;;;;;;;21.95;10.95;;;;;;;-1.69;46.80;100731.44;7396819;19;19999;-59
2022/12/15 07:53:04;;;;;;;22.33;11.38;;;;;;;-1.71;46.81;100731.69;7394520;19;20021;-59
2022/12/15 07:55:31;;;;;;;27.90;11.30;;;;;;;-1.89;47.18;100726.78;7397111;19;20014;-59
2022/12/15 07:57:57;;;;;;;20.83;10.30;;;;;;;-1.83;47.28;100730.28;7395687;19;20026;-59
2022/12/15 08:00:22;;;;;;;22.35;10.65;;;;;;;-1.78;47.25;100730.31;7392187;19;20006;-59
2022/12/15 08:02:48;;;;;;;20.95;10.65;;;;;;;-1.56;46.79;100738.16;7393102;19;20029;-59
2022/12/15 08:05:14;;;;;;;21.98;10.60;;;;;;;-1.57;46.68;100745.41;7396585;19;20003;-60
2022/12/15 08:07:39;;;;;;;21.55;11.25;;;;;;;-1.50;46.88;100751.31;7395112;19;20014;-59
2022/12/15 08:10:05;;;;;;;25.40;10.63;;;;;;;-1.53;46.88;100757.19;7396431;19;20470;-60
2022/12/15 08:12:31;;;;;;;24.67;11.68;;;;;;;-1.45;47.02;100763.13;7395560;19;20026;-60
2022/12/15 08:14:57;;;;;;;23.30;10.65;;;;;;;-1.37;46.89;100765.31;7396348;19;20058;-60
2022/12/15 08:17:22;;;;;;;27.05;11.00;;;;;;;-1.27;46.92;100765.34;7395252;19;20030;-60
2022/12/15 08:19:48;;;;;;;18.95;10.20;;;;;;;-1.23;46.82;100768.31;7395840;19;20013;-59
2022/12/15 08:22:14;;;;;;;21.52;10.60;;;;;;;-1.52;47.40;100769.50;7393791;19;19998;-60
2022/12/15 08:24:40;;;;;;;21.90;10.13;;;;;;;-1.56;47.78;100771.13;7393898;19;20026;-58
2022/12/15 08:27:07;;;;;;;22.58;11.15;;;;;;;-1.33;47.30;100769.84;7396066;19;20010;-59
2022/12/15 08:29:33;;;;;;;23.88;10.48;;;;;;;-1.31;47.50;100770.44;7395890;19;20006;-59
2022/12/15 08:31:59;;;;;;;20.25;10.23;;;;;;;-1.04;46.88;100776.66;7394982;19;20002;-59
2022/12/15 08:34:25;;;;;;;20.85;10.50;;;;;;;-1.06;47.08;100776.91;7394339;19;20023;-58
2022/12/15 08:36:51;;;;;;;22.98;10.95;;;;;;;-1.04;47.03;100777.47;7395729;19;20003;-59
2022/12/15 08:39:17;;;;;;;23.08;10.50;;;;;;;-1.11;47.17;100775.06;7393614;19;20010;-59
2022/12/15 08:41:42;;;;;;;26.17;11.13;;;;;;;-1.03;46.98;100778.28;7394814;19;20166;-59
2022/12/15 08:44:08;;;;;;;22.65;11.15;;;;;;;-1.16;47.50;100772.34;7392526;19;19999;-59
2022/12/15 08:46:34;;;;;;;18.15;10.07;;;;;;;-1.04;47.48;100779.34;7392886;19;20003;-59
2022/12/15 08:49:01;;;;;;;22.10;11.07;;;;;;;-0.89;47.33;100781.25;7393189;19;19995;-59
2022/12/15 08:51:29;;;;;;;25.65;10.63;;;;;;;-0.76;46.95;100781.56;7395256;19;20005;-59
2022/12/15 08:53:56;;;;;;;22.77;10.90;;;;;;;-0.67;46.88;100786.41;7393692;19;20003;-60
2022/12/15 08:56:24;;;;;;;21.42;11.25;;;;;;;-0.69;46.93;100792.03;7394577;19;20034;-60
2022/12/15 08:58:54;;;;;;;21.33;10.60;;;;;;;-0.64;46.68;100797.41;7391857;19;20470;-59
2022/12/15 09:01:21;;;;;;;20.25;9.88;;;;;;;-1.00;47.68;100794.63;7392376;19;20002;-59
2022/12/15 09:03:48;;;;;;;18.77;9.93;;;;;;;-1.19;48.55;100791.63;7391489;19;19999;-58
2022/12/15 09:06:19;;;;;;;18.38;9.57;;;;;;;-0.79;47.76;100790.16;7394478;19;20007;-59
2022/12/15 09:08:45;;;;;;;22.38;10.75;;;;;;;-0.59;47.51;100791.22;7392199;19;19999;-60
2022/12/15 09:11:11;;;;;;;23.23;9.73;;;;;;;-0.60;47.42;100792.31;7393827;19;20013;-59
2022/12/15 09:13:37;;;;;;;20.75;9.50;;;;;;;-0.47;47.11;100804.41;7393222;19;20462;-58
2022/12/15 09:16:14;;;;;;;24.35;10.68;;;;;;;-0.34;47.09;100811.94;7394465;19;20384;-59
2022/12/15 09:18:42;;;;;;;21.83;10.82;;;;;;;-0.21;46.69;100805.22;7391641;19;20002;-60
2022/12/15 09:21:10;;;;;;;21.30;10.23;;;;;;;-0.37;47.15;100797.16;7393993;19;20066;-61
2022/12/15 09:23:36;;;;;;;21.52;10.88;;;;;;;-0.14;46.77;100800.41;7393700;19;20010;-60
2022/12/15 09:26:07;;;;;;;21.55;9.95;;;;;;;-0.18;47.02;100796.63;7395976;19;20022;-60
2022/12/15 09:28:34;;;;;;;25.48;10.70;;;;;;;-0.21;47.14;100797.16;7393574;19;20010;-61
2022/12/15 09:31:24;;;;;;;21.17;10.45;;;;;;;-0.18;46.99;100793.94;7392926;19;19998;-59
2022/12/15 09:33:52;;;;;;;21.67;10.73;;;;;;;-0.07;46.89;100790.19;7393658;19;20011;-60
2022/12/15 09:36:18;;;;;;;21.17;9.88;;;;;;;0.01;46.77;100799.56;7392585;19;20013;-60
2022/12/15 09:38:44;;;;;;;21.23;10.20;;;;;;;0.11;46.79;100796.06;7391956;19;20006;-60
2022/12/15 09:41:13;;;;;;;23.65;10.07;;;;;;;-0.13;47.15;100788.59;7392860;19;20036;-60
2022/12/15 09:43:54;;;;;;;19.38;9.00;;;;;;;-0.10;47.39;100793.41;7392869;19;20430;-60
2022/12/15 09:46:25;;;;;;;18.05;9.13;;;;;;;-0.10;47.30;100793.41;7392605;19;20007;-58
2022/12/15 09:48:54;;;;;;;19.27;9.73;;;;;;;0.04;47.06;100798.25;7392581;19;20010;-60
2022/12/15 09:51:28;;;;;;;20.48;9.60;;;;;;;0.07;47.05;100805.75;7392276;19;20006;-60
2022/12/15 09:53:54;;;;;;;20.05;8.85;;;;;;;0.15;46.88;100805.22;7392237;19;20022;-60
2022/12/15 09:56:28;;;;;;;18.67;9.57;;;;;;;0.36;46.57;100804.09;7392209;19;20034;-60
2022/12/15 09:59:25;;;;;;;22.35;10.57;;;;;;;0.47;46.66;100807.56;7389186;19;20604;-60
2022/12/15 10:02:12;;;;;;;20.65;10.00;;;;;;;0.59;46.50;100812.63;7390444;19;20002;-60
2022/12/15 10:05:14;;;;;;;19.40;8.88;;;;;;;0.65;46.86;100818.81;7391949;19;20003;-58
2022/12/15 10:07:45;;;;;;;20.85;9.48;;;;;;;0.45;47.03;100825.81;7392034;19;20026;-59
2022/12/15 10:10:22;;;;;;;18.83;9.30;;;;;;;0.42;46.87;100812.94;7393113;19;20011;-59
2022/12/15 10:12:53;;;;;;;19.05;9.80;;;;;;;0.53;46.81;100822.59;7391411;19;20066;-59
2022/12/15 10:15:26;;;;;;;18.00;9.00;;;;;;;0.86;46.25;100819.53;7392214;19;20034;-59
2022/12/15 10:18:03;;;;;;;18.15;9.43;;;;;;;0.98;46.14;100822.75;7391191;19;20026;-59
2022/12/15 10:20:31;;;;;;;16.77;8.93;;;;;;;1.05;45.52;100823.22;7391917;19;20001;-59
2022/12/15 10:23:15;;;;;;;16.75;8.82;;;;;;;0.96;45.64;100819.50;7389715;19;20010;-59
2022/12/15 10:25:48;;;;;;;;;;;;;;;0.87;46.21;100823.81;7392854;19;20013;-59
2022/12/15 10:28:45;;;;;;;16.92;8.15;;;;;;;1.03;45.84;100814.66;7391072;19;19929;-59
2022/12/15 10:31:17;;;;;;;19.48;9.18;;;;;;;0.93;45.97;100815.47;7392032;19;20058;-59
2022/12/15 10:33:53;;;;;;;19.27;9.30;;;;;;;0.77;46.31;100821.19;7390780;19;20095;-59
2022/12/15 10:36:19;;;;;;;18.70;9.00;;;;;;;0.81;46.23;100811.47;7391613;19;20027;-59
2022/12/15 10:38:46;;;;;;;19.95;9.77;;;;;;;0.91;46.11;100811.44;7389774;19;20375;-58
2022/12/15 10:41:22;;;;;;;19.00;9.35;;;;;;;0.96;45.88;100813.31;7391553;19;20007;-59
2022/12/15 10:43:50;;;;;;;20.15;9.52;;;;;;;1.12;45.50;100826.41;7391018;19;20033;-59
2022/12/15 10:46:17;;;;;;;20.55;8.80;;;;;;;1.24;45.29;100831.47;7389240;19;20007;-59
2022/12/15 10:48:46;;;;;;;19.27;8.80;;;;;;;1.14;45.53;100814.59;7388824;19;20003;-60
2022/12/15 10:51:29;;;;;;;20.38;8.95;;;;;;;1.29;45.37;100817.19;7388905;19;20006;-59
2022/12/15 10:54:11;;;;;;;15.17;8.33;;;;;;;1.44;45.23;100825.16;7390301;19;20081;-60
2022/12/15 10:56:54;;;;;;;17.70;8.90;;;;;;;1.48;45.04;100814.66;7389474;19;20011;-59
2022/12/15 10:59:35;;;;;;;22.52;8.80;;;;;;;1.49;45.19;100817.06;7389191;19;20025;-59
2022/12/15 11:02:19;;;;;;;22.45;10.45;;;;;;;1.45;45.32;100809.84;7389705;19;20014;-59
2022/12/15 11:04:53;;;;;;;18.90;9.35;;;;;;;1.36;45.48;100823.06;7390577;19;20045;-60
2022/12/15 11:07:19;;;;;;;19.02;8.95;;;;;;;1.46;45.29;100814.13;7389985;19;20007;-60
2022/12/15 11:09:47;;;;;;;17.67;8.75;;;;;;;1.43;45.23;100828.13;7390591;19;20036;-59
2022/12/15 11:15:22;;;;;;;18.70;8.73;;;;;;;1.24;45.85;100819.91;7390230;19;20006;-59
2022/12/15 11:17:58;;;;;;;19.25;9.18;;;;;;;1.42;45.48;100824.66;7389310;19;20002;-61
2022/12/15 11:20:33;;;;;;;21.23;9.00;;;;;;;1.49;45.60;100825.13;7389803;19;20471;-60
2022/12/15 11:23:08;;;;;;;19.05;8.80;;;;;;;1.40;45.72;100824.13;7387280;19;20022;-59
2022/12/15 11:25:50;;;;;;;19.42;9.13;;;;;;;1.45;45.30;100821.41;7390179;19;20026;-60
2022/12/15 11:28:23;;;;;;;17.05;8.88;;;;;;;1.54;45.53;100823.50;7388041;19;20010;-60
2022/12/15 11:30:58;;;;;;;17.73;8.82;;;;;;;1.61;45.26;100823.97;7390111;19;20022;-60
2022/12/15 11:33:24;;;;;;;18.27;9.30;;;;;;;1.60;45.37;100827.75;7387295;19;20006;-60
2022/12/15 11:35:59;;;;;;;17.17;9.38;;;;;;;1.64;45.26;100831.50;7390309;19;20029;-61
2022/12/15 11:38:34;;;;;;;19.60;10.02;;;;;;;1.51;45.75;100832.91;7388184;19;20066;-60
2022/12/15 11:41:21;;;;;;;18.67;9.38;;;;;;;1.58;45.64;100829.91;7388036;19;20402;-60
2022/12/15 11:44:05;;;;;;;21.15;10.02;;;;;;;1.72;45.17;100833.59;7388099;19;20013;-61
2022/12/15 11:46:41;;;;;;;19.42;9.60;;;;;;;1.79;45.30;100830.59;7388148;19;20116;-61
2022/12/15 11:49:50;;;;;;;20.27;8.98;;;;;;;1.84;45.27;100838.63;7384950;19;20478;-61
2022/12/15 11:52:29;;;;;;;22.67;9.23;;;;;;;1.94;44.97;100835.06;7387795;19;19995;-60
2022/12/15 11:55:07;;;;;;;21.50;8.90;;;;;;;1.91;45.04;100833.72;7389391;19;20066;-60
2022/12/15 11:57:51;;;;;;;21.73;9.80;;;;;;;1.93;45.03;100828.84;7389364;19;20002;-60
2022/12/15 12:00:20;;;;;;;17.83;8.23;;;;;;;1.81;45.39;100833.78;7385189;19;20015;-61
2022/12/15 12:02:59;;;;;;;22.45;8.77;;;;;;;1.95;45.18;100840.16;7387054;19;20003;-60
2022/12/15 12:05:40;;;;;;;14.15;7.55;;;;;;;1.97;45.24;100835.28;7388641;19;19998;-60
2022/12/15 12:08:23;;;;;;;18.75;8.80;;;;;;;2.04;44.98;100835.75;7390241;19;20003;-60
2022/12/15 12:10:52;;;;;;;15.60;7.40;;;;;;;2.09;44.90;100829.53;7395545;19;20006;-59
2022/12/15 12:13:26;;;;;;;16.70;8.15;;;;;;;2.10;44.95;100831.16;7395590;19;20002;-60
2022/12/15 12:16:17;;;;;;;18.67;8.50;;;;;;;2.05;45.05;100829.31;7395187;19;20351;-60
2022/12/15 12:18:53;;;;;;;16.77;8.65;;;;;;;2.12;44.69;100828.19;7394130;19;19999;-60
2022/12/15 12:21:28;;;;;;;20.17;8.57;;;;;;;2.03;45.27;100838.72;7393034;19;19995;-59
2022/12/15 12:24:02;;;;;;;19.13;9.20;;;;;;;2.17;45.04;100836.22;7395318;19;20003;-60
2022/12/15 12:27:11;;;;;;;18.95;9.32;;;;;;;2.20;44.86;100841.81;7395112;19;20032;-59
2022/12/15 12:29:44;;;;;;;21.95;9.85;;;;;;;2.22;44.85;100850.41;7391245;19;20006;-60
2022/12/15 12:32:23;;;;;;;18.52;8.45;;;;;;;2.18;45.16;100838.63;7394254;19;19990;-60
2022/12/15 12:35:25;;;;;;;18.00;8.45;;;;;;;2.15;45.34;100836.50;7394119;19;19998;-60
2022/12/15 12:37:58;;;;;;;19.75;10.13;;;;;;;2.26;44.83;100837.19;7393858;19;20344;-60
2022/12/15 12:40:30;;;;;;;16.30;8.23;;;;;;;2.33;45.03;100836.84;7395771;19;19998;-61
2022/12/15 12:42:57;;;;;;;18.05;8.52;;;;;;;2.10;45.23;100841.09;7392448;19;20005;-59
2022/12/15 12:45:31;;;;;;;18.63;8.85;;;;;;;2.06;45.58;100840.88;7395535;19;20006;-61
2022/12/15 12:48:04;;;;;;;18.33;8.30;;;;;;;2.21;45.15;100837.22;7393984;19;20648;-59
2022/12/15 12:50:32;;;;;;;16.30;8.33;;;;;;;2.22;45.06;100845.03;7395182;19;20466;-60
2022/12/15 12:53:01;;;;;;;18.55;8.70;;;;;;;2.27;45.06;100846.06;7392474;19;20026;-60
2022/12/15 12:55:42;;;;;;;16.88;9.07;;;;;;;2.23;45.09;100846.66;7394461;19;20381;-60
2022/12/15 12:58:32;;;;;;;17.40;9.50;;;;;;;2.18;45.34;100844.00;7393400;19;20058;-60
2022/12/15 13:01:05;;;;;;;19.02;9.50;;;;;;;2.18;45.26;100844.00;7390328;19;20006;-60
2022/12/15 13:03:31;;;;;;;19.17;9.32;;;;;;;2.22;45.37;100845.03;7393237;19;20323;-60
2022/12/15 13:05:57;;;;;;;18.35;8.85;;;;;;;2.32;45.16;100843.34;7392666;19;20003;-59
2022/12/15 13:08:47;;;;;;;19.00;8.48;;;;;;;2.29;44.93;100838.53;7390658;19;19998;-60
2022/12/15 13:11:44;;;;;;;19.13;9.25;;;;;;;2.21;45.13;100837.22;7394655;19;20029;-59
2022/12/15 13:14:18;;;;;;;19.83;8.82;;;;;;;2.20;45.17;100838.31;7393050;19;20012;-60
2022/12/15 13:16:46;;;;;;;20.33;9.55;;;;;;;2.26;45.26;100844.47;7394651;19;20070;-60
2022/12/15 13:19:13;;;;;;;19.45;9.20;;;;;;;2.12;45.33;100837.06;7391026;19;20064;-60
2022/12/15 13:21:42;;;;;;;20.88;9.63;;;;;;;2.30;44.98;100834.72;7392483;19;20007;-60
2022/12/15 13:24:40;;;;;;;17.50;8.80;;;;;;;2.40;44.80;100830.06;7393546;19;20030;-61
2022/12/15 13:27:08;;;;;;;17.25;9.35;;;;;;;2.40;45.03;100835.44;7393656;19;20478;-60
2022/12/15 13:29:55;;;;;;;20.98;10.00;;;;;;;2.37;44.78;100830.63;7394481;19;20025;-60
2022/12/15 13:33:17;;;;;;;19.23;8.75;;;;;;;2.29;44.98;100823.16;7393208;19;20481;-60
2022/12/15 13:35:44;;;;;;;27.17;9.68;;;;;;;2.29;45.08;100816.97;7389451;19;20006;-60
2022/12/15 13:38:17;;;;;;;21.55;10.65;;;;;;;2.29;45.13;100817.75;7388540;19;20013;-59
2022/12/15 13:40:43;;;;;;;18.70;9.23;;;;;;;2.38;45.01;100817.94;7391644;19;20017;-60
2022/12/15 13:43:41;;;;;;;20.65;10.15;;;;;;;2.34;44.84;100820.41;7391163;19;20054;-60
2022/12/15 13:46:23;;;;;;;18.75;9.02;;;;;;;2.37;44.94;100829.81;7391210;19;19999;-59
2022/12/15 13:49:05;;;;;;;19.80;9.35;;;;;;;2.41;44.87;100820.06;7390365;19;20392;-59
2022/12/15 13:51:40;;;;;;;20.02;8.68;;;;;;;2.40;44.89;100829.22;7391227;19;20010;-60
2022/12/15 13:54:18;;;;;;;18.98;8.90;;;;;;;2.39;45.22;100825.75;7392006;19;20465;-60
2022/12/15 13:57:00;;;;;;;18.75;9.07;;;;;;;2.37;45.36;100824.44;7393328;19;20106;-60
2022/12/15 13:59:43;;;;;;;16.83;8.82;;;;;;;2.39;45.16;100830.34;7390357;19;20383;-60
2022/12/15 14:02:32;;;;;;;19.65;9.35;;;;;;;2.36;45.37;100831.69;7391787;19;20002;-60
2022/12/15 14:05:11;;;;;;;19.77;9.63;;;;;;;2.42;45.06;100835.16;7390061;19;20070;-60